sensor_id;sensor_type;location;lat;lon;timestamp;pressure;altitude;pressure_sealevel;temperature;humidity
58761;BME280;44529;47.464;19.014;2023-02-12T00:00:17;101480.28;;;5.12;80.70
58761;BME280;44529;47.464;19.014;2023-02-12T00:03:19;101490.38;;;5.22;80.68
58761;BME280;44529;47.464;19.014;2023-02-12T00:06:22;101490.13;;;5.24;80.57
58761;BME280;44529;47.464;19.014;2023-02-12T00:09:24;101494.31;;;5.20;80.86
58761;BME280;44529;47.464;19.014;2023-02-12T00:12:27;101497.59;;;5.22;80.90
58761;BME280;44529;47.464;19.014;2023-02-12T00:15:29;101494.06;;;5.21;80.99
58761;BME280;44529;47.464;19.014;2023-02-12T00:18:32;101491.56;;;5.14;81.32
58761;BME280;44529;47.464;19.014;2023-02-12T00:21:34;101476.88;;;5.17;81.46
58761;BME280;44529;47.464;19.014;2023-02-12T00:24:36;101476.53;;;5.13;81.73
58761;BME280;44529;47.464;19.014;2023-02-12T00:27:38;101480.09;;;5.19;81.54
58761;BME280;44529;47.464;19.014;2023-02-12T00:30:41;101477.69;;;5.18;81.61
58761;BME280;44529;47.464;19.014;2023-02-12T00:33:43;101478.31;;;5.08;82.43
58761;BME280;44529;47.464;19.014;2023-02-12T00:36:47;101476.69;;;5.24;81.82
58761;BME280;44529;47.464;19.014;2023-02-12T00:39:50;101481.25;;;5.23;81.89
58761;BME280;44529;47.464;19.014;2023-02-12T00:42:52;101467.50;;;5.20;82.10
58761;BME280;44529;47.464;19.014;2023-02-12T00:45:54;101471.81;;;5.21;82.24
58761;BME280;44529;47.464;19.014;2023-02-12T00:48:57;101473.13;;;5.18;82.32
58761;BME280;44529;47.464;19.014;2023-02-12T00:52:01;101465.44;;;5.22;82.11
58761;BME280;44529;47.464;19.014;2023-02-12T00:55:04;101457.03;;;5.18;82.31
58761;BME280;44529;47.464;19.014;2023-02-12T00:58:06;101472.62;;;5.21;82.26
58761;BME280;44529;47.464;19.014;2023-02-12T01:01:09;101468.97;;;5.27;82.01
58761;BME280;44529;47.464;19.014;2023-02-12T01:04:12;101475.81;;;5.18;82.51
58761;BME280;44529;47.464;19.014;2023-02-12T01:07:14;101468.09;;;5.22;82.42
58761;BME280;44529;47.464;19.014;2023-02-12T01:10:17;101463.13;;;5.13;82.77
58761;BME280;44529;47.464;19.014;2023-02-12T01:13:22;101467.44;;;5.14;82.78
58761;BME280;44529;47.464;19.014;2023-02-12T01:16:25;101469.56;;;5.12;82.70
58761;BME280;44529;47.464;19.014;2023-02-12T01:19:27;101464.28;;;5.18;82.47
58761;BME280;44529;47.464;19.014;2023-02-12T01:22:30;101470.69;;;5.16;82.40
58761;BME280;44529;47.464;19.014;2023-02-12T01:25:32;101449.72;;;5.13;82.63
58761;BME280;44529;47.464;19.014;2023-02-12T01:28:36;101449.41;;;5.10;82.83
58761;BME280;44529;47.464;19.014;2023-02-12T01:31:39;101446.41;;;5.06;82.99
58761;BME280;44529;47.464;19.014;2023-02-12T01:34:43;101445.84;;;5.04;83.07
58761;BME280;44529;47.464;19.014;2023-02-12T01:37:46;101436.81;;;5.10;82.79
58761;BME280;44529;47.464;19.014;2023-02-12T01:40:48;101427.81;;;5.16;82.36
58761;BME280;44529;47.464;19.014;2023-02-12T01:47:16;101434.66;;;4.91;83.67
58761;BME280;44529;47.464;19.014;2023-02-12T01:50:19;101429.50;;;4.89;83.87
58761;BME280;44529;47.464;19.014;2023-02-12T01:53:24;101447.00;;;4.92;83.62
58761;BME280;44529;47.464;19.014;2023-02-12T01:56:30;101444.31;;;4.92;83.89
58761;BME280;44529;47.464;19.014;2023-02-12T01:59:35;101438.78;;;4.98;83.49
58761;BME280;44529;47.464;19.014;2023-02-12T02:02:39;101451.13;;;4.99;83.34
58761;BME280;44529;47.464;19.014;2023-02-12T02:06:13;101459.16;;;4.99;83.31
58761;BME280;44529;47.464;19.014;2023-02-12T02:09:18;101454.94;;;5.03;83.24
58761;BME280;44529;47.464;19.014;2023-02-12T02:12:21;101460.78;;;5.00;83.07
58761;BME280;44529;47.464;19.014;2023-02-12T02:15:46;101446.91;;;5.03;82.93
58761;BME280;44529;47.464;19.014;2023-02-12T02:18:57;101450.63;;;5.02;83.01
58761;BME280;44529;47.464;19.014;2023-02-12T02:25:39;101462.75;;;5.05;83.09
58761;BME280;44529;47.464;19.014;2023-02-12T02:32:30;101462.25;;;5.08;83.02
58761;BME280;44529;47.464;19.014;2023-02-12T02:35:48;101466.78;;;5.07;82.97
58761;BME280;44529;47.464;19.014;2023-02-12T02:39:08;101472.47;;;4.94;83.95
58761;BME280;44529;47.464;19.014;2023-02-12T02:42:36;101482.62;;;4.92;84.04
58761;BME280;44529;47.464;19.014;2023-02-12T02:45:50;101480.28;;;4.96;84.03
58761;BME280;44529;47.464;19.014;2023-02-12T02:49:00;101480.69;;;5.04;83.38
58761;BME280;44529;47.464;19.014;2023-02-12T02:52:07;101487.25;;;5.13;82.57
58761;BME280;44529;47.464;19.014;2023-02-12T02:55:13;101477.34;;;5.14;82.19
58761;BME280;44529;47.464;19.014;2023-02-12T02:58:24;101477.69;;;5.18;82.04
58761;BME280;44529;47.464;19.014;2023-02-12T03:01:52;101489.56;;;5.22;82.07
58761;BME280;44529;47.464;19.014;2023-02-12T03:05:06;101493.12;;;5.10;82.87
58761;BME280;44529;47.464;19.014;2023-02-12T03:08:17;101493.12;;;5.10;82.78
58761;BME280;44529;47.464;19.014;2023-02-12T03:11:30;101502.28;;;5.14;82.87
58761;BME280;44529;47.464;19.014;2023-02-12T03:14:38;101503.84;;;5.10;82.93
58761;BME280;44529;47.464;19.014;2023-02-12T03:17:45;101505.63;;;5.05;83.28
58761;BME280;44529;47.464;19.014;2023-02-12T03:21:02;101511.13;;;5.15;82.71
58761;BME280;44529;47.464;19.014;2023-02-12T03:24:12;101514.31;;;5.12;82.73
58761;BME280;44529;47.464;19.014;2023-02-12T03:27:37;101511.63;;;5.12;82.74
58761;BME280;44529;47.464;19.014;2023-02-12T03:30:52;101525.84;;;4.96;83.31
58761;BME280;44529;47.464;19.014;2023-02-12T03:37:16;101536.81;;;4.94;83.82
58761;BME280;44529;47.464;19.014;2023-02-12T03:40:34;101527.28;;;4.86;84.28
58761;BME280;44529;47.464;19.014;2023-02-12T03:43:48;101536.16;;;4.87;84.38
58761;BME280;44529;47.464;19.014;2023-02-12T03:50:19;101529.81;;;4.93;84.11
58761;BME280;44529;47.464;19.014;2023-02-12T03:53:25;101540.88;;;4.97;84.05
58761;BME280;44529;47.464;19.014;2023-02-12T03:59:36;101549.09;;;5.07;83.50
58761;BME280;44529;47.464;19.014;2023-02-12T04:02:39;101547.62;;;4.99;84.11
58761;BME280;44529;47.464;19.014;2023-02-12T04:05:42;101555.31;;;4.96;84.27
58761;BME280;44529;47.464;19.014;2023-02-12T04:08:44;101554.34;;;4.85;84.92
58761;BME280;44529;47.464;19.014;2023-02-12T04:18:41;101587.75;;;4.66;85.83
58761;BME280;44529;47.464;19.014;2023-02-12T04:22:13;101590.19;;;4.67;85.89
58761;BME280;44529;47.464;19.014;2023-02-12T04:32:33;101633.53;;;4.64;85.61
58761;BME280;44529;47.464;19.014;2023-02-12T04:36:07;101623.00;;;4.74;85.46
58761;BME280;44529;47.464;19.014;2023-02-12T04:39:16;101629.16;;;4.75;85.36
58761;BME280;44529;47.464;19.014;2023-02-12T04:42:21;101623.00;;;4.74;85.39
58761;BME280;44529;47.464;19.014;2023-02-12T04:45:30;101623.50;;;4.71;85.40
58761;BME280;44529;47.464;19.014;2023-02-12T04:48:34;101628.34;;;4.74;85.36
58761;BME280;44529;47.464;19.014;2023-02-12T04:51:37;101636.22;;;4.64;85.62
58761;BME280;44529;47.464;19.014;2023-02-12T04:54:39;101646.09;;;4.63;85.69
58761;BME280;44529;47.464;19.014;2023-02-12T04:57:42;101648.19;;;4.61;85.54
58761;BME280;44529;47.464;19.014;2023-02-12T05:00:44;101660.09;;;4.54;85.61
58761;BME280;44529;47.464;19.014;2023-02-12T05:03:46;101655.31;;;4.44;86.13
58761;BME280;44529;47.464;19.014;2023-02-12T05:06:48;101662.34;;;4.45;86.15
58761;BME280;44529;47.464;19.014;2023-02-12T05:09:51;101666.53;;;4.41;86.41
58761;BME280;44529;47.464;19.014;2023-02-12T05:12:54;101665.72;;;4.41;86.70
58761;BME280;44529;47.464;19.014;2023-02-12T05:15:56;101671.41;;;4.44;86.60
58761;BME280;44529;47.464;19.014;2023-02-12T05:18:59;101680.28;;;4.45;87.02
58761;BME280;44529;47.464;19.014;2023-02-12T05:22:02;101683.97;;;4.44;87.30
58761;BME280;44529;47.464;19.014;2023-02-12T05:25:04;101689.25;;;4.39;86.84
58761;BME280;44529;47.464;19.014;2023-02-12T05:28:07;101689.38;;;4.32;87.33
58761;BME280;44529;47.464;19.014;2023-02-12T05:31:13;101709.97;;;4.20;88.15
58761;BME280;44529;47.464;19.014;2023-02-12T05:34:16;101719.06;;;4.19;88.85
58761;BME280;44529;47.464;19.014;2023-02-12T05:37:18;101710.78;;;4.20;88.90
58761;BME280;44529;47.464;19.014;2023-02-12T05:40:20;101708.56;;;4.17;89.38
58761;BME280;44529;47.464;19.014;2023-02-12T05:43:23;101711.59;;;4.21;89.54
58761;BME280;44529;47.464;19.014;2023-02-12T05:46:25;101726.72;;;4.15;89.61
58761;BME280;44529;47.464;19.014;2023-02-12T05:49:27;101720.31;;;4.04;89.83
58761;BME280;44529;47.464;19.014;2023-02-12T05:52:30;101721.47;;;4.08;88.97
58761;BME280;44529;47.464;19.014;2023-02-12T05:55:32;101732.44;;;3.65;88.84
58761;BME280;44529;47.464;19.014;2023-02-12T05:58:35;101742.69;;;3.68;88.51
58761;BME280;44529;47.464;19.014;2023-02-12T06:01:39;101743.19;;;3.47;89.29
58761;BME280;44529;47.464;19.014;2023-02-12T06:04:42;101748.53;;;3.35;89.25
58761;BME280;44529;47.464;19.014;2023-02-12T06:07:44;101757.06;;;3.25;90.09
58761;BME280;44529;47.464;19.014;2023-02-12T06:10:46;101770.81;;;3.11;90.90
58761;BME280;44529;47.464;19.014;2023-02-12T06:13:49;101772.06;;;3.08;91.95
58761;BME280;44529;47.464;19.014;2023-02-12T06:16:52;101766.53;;;3.10;90.60
58761;BME280;44529;47.464;19.014;2023-02-12T06:19:54;101779.28;;;3.08;92.69
58761;BME280;44529;47.464;19.014;2023-02-12T06:22:56;101774.81;;;3.02;92.41
58761;BME280;44529;47.464;19.014;2023-02-12T06:25:58;101779.81;;;2.98;91.96
58761;BME280;44529;47.464;19.014;2023-02-12T06:29:01;101784.53;;;2.96;92.20
58761;BME280;44529;47.464;19.014;2023-02-12T06:32:03;101776.75;;;2.94;92.76
58761;BME280;44529;47.464;19.014;2023-02-12T06:35:06;101787.50;;;2.88;93.19
58761;BME280;44529;47.464;19.014;2023-02-12T06:38:09;101789.13;;;2.89;92.55
58761;BME280;44529;47.464;19.014;2023-02-12T06:41:12;101785.44;;;2.71;93.40
58761;BME280;44529;47.464;19.014;2023-02-12T06:44:14;101783.25;;;2.62;93.89
58761;BME280;44529;47.464;19.014;2023-02-12T06:47:17;101798.41;;;2.68;94.40
58761;BME280;44529;47.464;19.014;2023-02-12T06:50:19;101808.50;;;2.66;94.21
58761;BME280;44529;47.464;19.014;2023-02-12T06:53:22;101815.06;;;2.63;95.02
58761;BME280;44529;47.464;19.014;2023-02-12T06:56:25;101818.72;;;2.69;95.49
58761;BME280;44529;47.464;19.014;2023-02-12T06:59:28;101830.31;;;2.81;95.63
58761;BME280;44529;47.464;19.014;2023-02-12T07:02:30;101822.31;;;2.81;96.76
58761;BME280;44529;47.464;19.014;2023-02-12T07:05:33;101825.88;;;2.93;96.28
58761;BME280;44529;47.464;19.014;2023-02-12T07:08:39;101836.87;;;3.04;96.01
58761;BME280;44529;47.464;19.014;2023-02-12T07:11:41;101844.22;;;3.08;96.53
58761;BME280;44529;47.464;19.014;2023-02-12T07:14:43;101847.88;;;3.14;96.59
58761;BME280;44529;47.464;19.014;2023-02-12T07:17:46;101855.16;;;3.25;97.23
58761;BME280;44529;47.464;19.014;2023-02-12T07:20:48;101860.94;;;3.40;97.18
58761;BME280;44529;47.464;19.014;2023-02-12T07:23:51;101853.56;;;3.54;96.44
58761;BME280;44529;47.464;19.014;2023-02-12T07:26:54;101864.94;;;3.68;96.35
58761;BME280;44529;47.464;19.014;2023-02-12T07:29:56;101861.28;;;3.92;95.34
58761;BME280;44529;47.464;19.014;2023-02-12T07:32:58;101867.41;;;4.11;94.02
58761;BME280;44529;47.464;19.014;2023-02-12T07:36:02;101882.00;;;4.27;93.15
58761;BME280;44529;47.464;19.014;2023-02-12T07:39:04;101876.47;;;4.40;92.27
58761;BME280;44529;47.464;19.014;2023-02-12T07:42:07;101878.44;;;4.56;91.20
58761;BME280;44529;47.464;19.014;2023-02-12T07:45:09;101886.03;;;4.59;90.87
58761;BME280;44529;47.464;19.014;2023-02-12T07:48:12;101904.44;;;4.68;90.48
58761;BME280;44529;47.464;19.014;2023-02-12T07:51:16;101898.63;;;4.82;89.38
58761;BME280;44529;47.464;19.014;2023-02-12T07:54:20;101905.63;;;4.95;88.19
58761;BME280;44529;47.464;19.014;2023-02-12T07:57:22;101904.69;;;5.01;87.43
58761;BME280;44529;47.464;19.014;2023-02-12T08:00:25;101906.56;;;5.12;86.59
58761;BME280;44529;47.464;19.014;2023-02-12T08:03:27;101908.31;;;5.19;86.02
58761;BME280;44529;47.464;19.014;2023-02-12T08:06:32;101906.88;;;5.28;85.57
58761;BME280;44529;47.464;19.014;2023-02-12T08:09:35;101909.56;;;5.39;84.67
58761;BME280;44529;47.464;19.014;2023-02-12T08:12:37;101910.25;;;5.47;84.35
58761;BME280;44529;47.464;19.014;2023-02-12T08:15:40;101916.22;;;5.49;84.35
58761;BME280;44529;47.464;19.014;2023-02-12T08:18:42;101918.88;;;5.60;83.31
58761;BME280;44529;47.464;19.014;2023-02-12T08:21:45;101911.50;;;5.67;82.92
58761;BME280;44529;47.464;19.014;2023-02-12T08:24:49;101920.44;;;5.73;82.34
58761;BME280;44529;47.464;19.014;2023-02-12T08:27:52;101918.56;;;5.85;81.91
58761;BME280;44529;47.464;19.014;2023-02-12T08:30:59;101933.38;;;5.88;81.36
58761;BME280;44529;47.464;19.014;2023-02-12T08:34:02;101929.09;;;5.75;82.07
58761;BME280;44529;47.464;19.014;2023-02-12T08:37:05;101933.69;;;5.63;83.41
58761;BME280;44529;47.464;19.014;2023-02-12T08:40:08;101941.28;;;5.54;83.87
58761;BME280;44529;47.464;19.014;2023-02-12T08:43:10;101941.84;;;5.56;83.86
58761;BME280;44529;47.464;19.014;2023-02-12T08:46:22;101938.94;;;5.58;84.10
58761;BME280;44529;47.464;19.014;2023-02-12T08:49:27;101937.19;;;5.63;84.08
58761;BME280;44529;47.464;19.014;2023-02-12T08:52:30;101939.25;;;5.73;83.94
58761;BME280;44529;47.464;19.014;2023-02-12T08:55:32;101957.31;;;5.89;83.40
58761;BME280;44529;47.464;19.014;2023-02-12T08:58:35;101941.47;;;6.16;82.67
58761;BME280;44529;47.464;19.014;2023-02-12T09:01:38;101947.88;;;6.44;81.51
58761;BME280;44529;47.464;19.014;2023-02-12T09:04:44;101958.91;;;6.76;80.14
58761;BME280;44529;47.464;19.014;2023-02-12T09:07:46;101968.87;;;7.09;78.88
58761;BME280;44529;47.464;19.014;2023-02-12T09:10:49;101963.19;;;7.44;77.39
58761;BME280;44529;47.464;19.014;2023-02-12T09:13:52;101964.78;;;7.84;75.17
58761;BME280;44529;47.464;19.014;2023-02-12T09:16:54;101971.34;;;8.15;73.96
58761;BME280;44529;47.464;19.014;2023-02-12T09:19:58;101972.78;;;8.45;71.84
58761;BME280;44529;47.464;19.014;2023-02-12T09:23:02;101980.03;;;8.71;70.68
58761;BME280;44529;47.464;19.014;2023-02-12T09:26:07;101982.75;;;8.71;70.69
58761;BME280;44529;47.464;19.014;2023-02-12T09:29:10;101989.22;;;9.02;69.95
58761;BME280;44529;47.464;19.014;2023-02-12T09:32:12;101986.63;;;9.17;68.29
58761;BME280;44529;47.464;19.014;2023-02-12T09:35:14;101996.37;;;9.23;68.33
58761;BME280;44529;47.464;19.014;2023-02-12T09:38:17;101992.28;;;9.16;67.65
58761;BME280;44529;47.464;19.014;2023-02-12T09:45:21;101998.66;;;9.05;67.44
58761;BME280;44529;47.464;19.014;2023-02-12T09:49:10;101997.62;;;9.11;67.94
58761;BME280;44529;47.464;19.014;2023-02-12T09:52:19;101996.50;;;9.07;68.24
58761;BME280;44529;47.464;19.014;2023-02-12T09:55:26;102002.69;;;9.02;68.27
58761;BME280;44529;47.464;19.014;2023-02-12T09:58:34;102002.06;;;8.95;68.61
58761;BME280;44529;47.464;19.014;2023-02-12T10:01:39;102011.00;;;8.95;67.29
58761;BME280;44529;47.464;19.014;2023-02-12T10:04:43;102001.31;;;9.00;67.81
58761;BME280;44529;47.464;19.014;2023-02-12T10:25:02;102029.25;;;9.58;62.64
58761;BME280;44529;47.464;19.014;2023-02-12T10:28:23;102024.44;;;9.65;61.25
58761;BME280;44529;47.464;19.014;2023-02-12T10:31:30;102019.63;;;9.67;61.89
58761;BME280;44529;47.464;19.014;2023-02-12T10:34:35;102021.84;;;9.80;61.14
58761;BME280;44529;47.464;19.014;2023-02-12T10:37:44;102025.38;;;9.91;60.01
58761;BME280;44529;47.464;19.014;2023-02-12T10:40:49;102022.19;;;9.94;59.13
58761;BME280;44529;47.464;19.014;2023-02-12T10:43:52;102024.13;;;10.09;58.37
58761;BME280;44529;47.464;19.014;2023-02-12T10:46:55;102025.50;;;10.11;57.84
58761;BME280;44529;47.464;19.014;2023-02-12T10:50:00;102028.47;;;10.15;58.32
58761;BME280;44529;47.464;19.014;2023-02-12T10:53:03;102031.22;;;10.20;58.01
58761;BME280;44529;47.464;19.014;2023-02-12T10:59:22;102029.13;;;10.42;57.25
58761;BME280;44529;47.464;19.014;2023-02-12T11:02:30;102015.88;;;10.41;57.41
58761;BME280;44529;47.464;19.014;2023-02-12T11:05:34;102021.06;;;10.52;56.94
58761;BME280;44529;47.464;19.014;2023-02-12T11:08:37;102024.34;;;10.65;56.85
58761;BME280;44529;47.464;19.014;2023-02-12T11:11:40;102015.12;;;10.61;55.44
58761;BME280;44529;47.464;19.014;2023-02-12T11:14:48;102017.28;;;10.58;55.32
58761;BME280;44529;47.464;19.014;2023-02-12T11:24:29;102028.62;;;10.45;55.83
58761;BME280;44529;47.464;19.014;2023-02-12T11:27:32;102022.87;;;10.26;56.53
58761;BME280;44529;47.464;19.014;2023-02-12T11:30:34;102028.28;;;10.26;57.15
58761;BME280;44529;47.464;19.014;2023-02-12T11:33:37;102033.91;;;10.20;55.70
58761;BME280;44529;47.464;19.014;2023-02-12T11:36:51;102030.63;;;10.08;56.58
58761;BME280;44529;47.464;19.014;2023-02-12T11:39:54;102030.31;;;9.99;57.21
58761;BME280;44529;47.464;19.014;2023-02-12T11:43:00;102032.47;;;10.02;57.35
58761;BME280;44529;47.464;19.014;2023-02-12T11:46:03;102033.00;;;9.94;56.80
58761;BME280;44529;47.464;19.014;2023-02-12T11:49:06;102040.25;;;9.88;58.96
58761;BME280;44529;47.464;19.014;2023-02-12T11:52:28;102041.00;;;9.78;59.88
58761;BME280;44529;47.464;19.014;2023-02-12T11:55:34;102031.50;;;9.71;60.29
58761;BME280;44529;47.464;19.014;2023-02-12T11:58:39;102038.19;;;9.58;60.43
58761;BME280;44529;47.464;19.014;2023-02-12T12:01:41;102043.81;;;9.52;60.84
58761;BME280;44529;47.464;19.014;2023-02-12T12:04:45;102036.81;;;9.56;60.62
58761;BME280;44529;47.464;19.014;2023-02-12T12:07:55;102032.72;;;9.48;60.48
58761;BME280;44529;47.464;19.014;2023-02-12T12:11:12;102032.69;;;9.43;60.93
58761;BME280;44529;47.464;19.014;2023-02-12T12:14:55;102028.19;;;9.59;61.00
58761;BME280;44529;47.464;19.014;2023-02-12T12:18:38;102024.94;;;9.57;61.04
58761;BME280;44529;47.464;19.014;2023-02-12T12:22:10;102019.00;;;9.55;59.98
58761;BME280;44529;47.464;19.014;2023-02-12T12:25:21;102018.41;;;9.47;60.20
58761;BME280;44529;47.464;19.014;2023-02-12T12:28:43;102016.03;;;9.56;60.13
58761;BME280;44529;47.464;19.014;2023-02-12T12:31:49;102014.91;;;9.52;60.28
58761;BME280;44529;47.464;19.014;2023-02-12T12:34:54;102015.69;;;9.42;60.09
58761;BME280;44529;47.464;19.014;2023-02-12T12:38:18;102012.44;;;9.40;60.35
58761;BME280;44529;47.464;19.014;2023-02-12T12:44:55;102006.13;;;9.30;60.61
58761;BME280;44529;47.464;19.014;2023-02-12T12:58:08;102017.13;;;9.18;60.97
58761;BME280;44529;47.464;19.014;2023-02-12T13:15:57;102016.66;;;9.31;59.99
58761;BME280;44529;47.464;19.014;2023-02-12T13:23:14;102016.25;;;9.12;62.42
58761;BME280;44529;47.464;19.014;2023-02-12T13:30:00;102017.56;;;9.05;63.21
58761;BME280;44529;47.464;19.014;2023-02-12T13:33:15;102019.59;;;8.92;63.69
58761;BME280;44529;47.464;19.014;2023-02-12T13:36:19;102012.31;;;8.93;63.64
58761;BME280;44529;47.464;19.014;2023-02-12T13:42:52;102019.59;;;8.92;63.29
58761;BME280;44529;47.464;19.014;2023-02-12T14:05:34;102038.38;;;9.89;61.46
58761;BME280;44529;47.464;19.014;2023-02-12T14:08:41;102049.16;;;9.89;60.72
58761;BME280;44529;47.464;19.014;2023-02-12T14:11:50;102042.06;;;9.77;60.83
58761;BME280;44529;47.464;19.014;2023-02-12T14:15:08;102034.75;;;9.68;61.64
58761;BME280;44529;47.464;19.014;2023-02-12T14:18:25;102040.06;;;9.58;61.30
58761;BME280;44529;47.464;19.014;2023-02-12T14:30:44;102038.66;;;9.13;63.02
58761;BME280;44529;47.464;19.014;2023-02-12T14:33:52;102045.34;;;9.05;62.86
58761;BME280;44529;47.464;19.014;2023-02-12T14:37:15;102052.03;;;8.98;63.37
58761;BME280;44529;47.464;19.014;2023-02-12T14:43:37;102059.25;;;8.92;64.07
58761;BME280;44529;47.464;19.014;2023-02-12T14:47:02;102062.38;;;8.79;65.12
58761;BME280;44529;47.464;19.014;2023-02-12T14:50:14;102066.59;;;8.70;63.93
58761;BME280;44529;47.464;19.014;2023-02-12T14:53:27;102066.34;;;8.71;64.02
58761;BME280;44529;47.464;19.014;2023-02-12T14:56:36;102064.66;;;8.65;63.50
58761;BME280;44529;47.464;19.014;2023-02-12T14:59:43;102073.25;;;8.62;63.96
58761;BME280;44529;47.464;19.014;2023-02-12T15:02:53;102071.06;;;8.59;64.96
58761;BME280;44529;47.464;19.014;2023-02-12T15:12:45;102074.63;;;8.21;64.21
58761;BME280;44529;47.464;19.014;2023-02-12T15:15:54;102072.19;;;8.19;64.73
58761;BME280;44529;47.464;19.014;2023-02-12T15:19:27;102074.28;;;8.17;64.58
58761;BME280;44529;47.464;19.014;2023-02-12T15:22:34;102080.50;;;8.18;64.33
58761;BME280;44529;47.464;19.014;2023-02-12T15:25:38;102077.25;;;8.15;64.61
58761;BME280;44529;47.464;19.014;2023-02-12T15:28:42;102077.16;;;8.10;64.56
58761;BME280;44529;47.464;19.014;2023-02-12T15:31:53;102086.75;;;8.01;65.24
58761;BME280;44529;47.464;19.014;2023-02-12T15:34:56;102080.81;;;7.99;65.14
58761;BME280;44529;47.464;19.014;2023-02-12T15:37:59;102086.94;;;7.95;65.32
58761;BME280;44529;47.464;19.014;2023-02-12T15:41:03;102081.72;;;7.88;65.78
58761;BME280;44529;47.464;19.014;2023-02-12T15:47:20;102082.97;;;7.80;66.05
58761;BME280;44529;47.464;19.014;2023-02-12T15:50:28;102089.91;;;7.76;66.17
58761;BME280;44529;47.464;19.014;2023-02-12T15:53:32;102100.69;;;7.76;66.20
58761;BME280;44529;47.464;19.014;2023-02-12T15:56:39;102097.25;;;7.64;66.84
58761;BME280;44529;47.464;19.014;2023-02-12T15:59:42;102102.41;;;7.49;67.19
58761;BME280;44529;47.464;19.014;2023-02-12T16:02:51;102098.97;;;7.37;67.88
58761;BME280;44529;47.464;19.014;2023-02-12T16:06:12;102107.47;;;7.28;68.33
58761;BME280;44529;47.464;19.014;2023-02-12T16:09:31;102108.00;;;7.14;68.87
58761;BME280;44529;47.464;19.014;2023-02-12T16:12:35;102117.84;;;7.08;68.99
58761;BME280;44529;47.464;19.014;2023-02-12T16:15:38;102116.88;;;6.97;69.19
58761;BME280;44529;47.464;19.014;2023-02-12T16:18:41;102124.59;;;6.94;69.23
58761;BME280;44529;47.464;19.014;2023-02-12T16:21:47;102128.37;;;6.81;70.80
58761;BME280;44529;47.464;19.014;2023-02-12T16:24:52;102141.97;;;6.74;71.75
58761;BME280;44529;47.464;19.014;2023-02-12T16:31:16;102140.38;;;6.62;71.11
58761;BME280;44529;47.464;19.014;2023-02-12T16:34:36;102140.25;;;6.57;71.56
58761;BME280;44529;47.464;19.014;2023-02-12T16:37:56;102151.97;;;6.50;71.49
58761;BME280;44529;47.464;19.014;2023-02-12T16:41:20;102142.53;;;6.24;72.86
58761;BME280;44529;47.464;19.014;2023-02-12T16:44:27;102143.16;;;6.15;72.84
58761;BME280;44529;47.464;19.014;2023-02-12T16:47:32;102162.19;;;6.13;73.43
58761;BME280;44529;47.464;19.014;2023-02-12T16:50:45;102159.69;;;5.88;73.98
58761;BME280;44529;47.464;19.014;2023-02-12T16:53:48;102162.25;;;5.83;74.88
58761;BME280;44529;47.464;19.014;2023-02-12T16:56:51;102171.47;;;5.76;76.06
58761;BME280;44529;47.464;19.014;2023-02-12T16:59:53;102168.91;;;5.81;75.78
58761;BME280;44529;47.464;19.014;2023-02-12T17:02:56;102176.13;;;5.68;76.34
58761;BME280;44529;47.464;19.014;2023-02-12T17:05:58;102175.28;;;5.56;77.14
58761;BME280;44529;47.464;19.014;2023-02-12T17:09:01;102181.31;;;5.40;77.82
58761;BME280;44529;47.464;19.014;2023-02-12T17:12:03;102186.56;;;5.35;77.49
58761;BME280;44529;47.464;19.014;2023-02-12T17:15:06;102188.06;;;5.31;77.32
58761;BME280;44529;47.464;19.014;2023-02-12T17:18:08;102191.78;;;5.30;76.99
58761;BME280;44529;47.464;19.014;2023-02-12T17:21:36;102191.19;;;5.28;77.52
58761;BME280;44529;47.464;19.014;2023-02-12T17:24:40;102187.66;;;5.15;77.63
58761;BME280;44529;47.464;19.014;2023-02-12T17:27:43;102198.38;;;5.15;77.27
58761;BME280;44529;47.464;19.014;2023-02-12T17:30:45;102194.12;;;5.08;77.05
58761;BME280;44529;47.464;19.014;2023-02-12T17:33:47;102186.56;;;5.05;77.74
58761;BME280;44529;47.464;19.014;2023-02-12T17:36:51;102181.28;;;4.98;78.10
58761;BME280;44529;47.464;19.014;2023-02-12T17:39:53;102183.00;;;4.74;78.66
58761;BME280;44529;47.464;19.014;2023-02-12T17:42:57;102196.13;;;4.64;79.55
58761;BME280;44529;47.464;19.014;2023-02-12T17:46:00;102200.38;;;4.72;79.51
58761;BME280;44529;47.464;19.014;2023-02-12T17:49:02;102199.00;;;4.81;79.24
58761;BME280;44529;47.464;19.014;2023-02-12T17:52:05;102198.88;;;4.76;79.74
58761;BME280;44529;47.464;19.014;2023-02-12T17:55:09;102210.03;;;4.73;79.95
58761;BME280;44529;47.464;19.014;2023-02-12T17:58:15;102210.47;;;4.70;79.48
58761;BME280;44529;47.464;19.014;2023-02-12T18:01:20;102209.59;;;4.57;80.03
58761;BME280;44529;47.464;19.014;2023-02-12T18:04:23;102218.88;;;4.55;80.33
58761;BME280;44529;47.464;19.014;2023-02-12T18:07:26;102216.19;;;4.37;80.85
58761;BME280;44529;47.464;19.014;2023-02-12T18:10:28;102220.19;;;4.27;81.61
58761;BME280;44529;47.464;19.014;2023-02-12T18:13:31;102224.25;;;4.12;81.48
58761;BME280;44529;47.464;19.014;2023-02-12T18:16:34;102223.72;;;4.03;82.30
58761;BME280;44529;47.464;19.014;2023-02-12T18:19:36;102223.78;;;3.96;82.16
58761;BME280;44529;47.464;19.014;2023-02-12T18:22:39;102227.00;;;3.80;82.87
58761;BME280;44529;47.464;19.014;2023-02-12T18:25:43;102220.84;;;3.73;83.73
58761;BME280;44529;47.464;19.014;2023-02-12T18:28:46;102225.06;;;3.62;83.63
58761;BME280;44529;47.464;19.014;2023-02-12T18:31:48;102234.53;;;3.58;83.84
58761;BME280;44529;47.464;19.014;2023-02-12T18:34:51;102232.94;;;3.50;84.12
58761;BME280;44529;47.464;19.014;2023-02-12T18:37:54;102232.63;;;3.34;84.47
58761;BME280;44529;47.464;19.014;2023-02-12T18:40:56;102230.09;;;3.07;85.01
58761;BME280;44529;47.464;19.014;2023-02-12T18:44:00;102241.59;;;3.08;85.44